sensor_id;sensor_type;location;lat;lon;timestamp;temperature;humidity
5743;DHT22;2896;53.500;10.020;2024-03-17T00:01:00;4.30;99.90
5743;DHT22;2896;53.500;10.020;2024-03-17T00:03:26;4.20;99.90
5743;DHT22;2896;53.500;10.020;2024-03-17T00:05:56;4.30;99.90
5743;DHT22;2896;53.500;10.020;2024-03-17T00:08:23;4.10;99.90
5743;DHT22;2896;53.500;10.020;2024-03-17T00:10:50;4.20;99.90
5743;DHT22;2896;53.500;10.020;2024-03-17T00:13:16;4.20;99.90
5743;DHT22;2896;53.500;10.020;2024-03-17T00:15:42;4.20;99.90
5743;DHT22;2896;53.500;10.020;2024-03-17T00:18:09;4.10;99.90
5743;DHT22;2896;53.500;10.020;2024-03-17T00:20:36;4.10;99.90
5743;DHT22;2896;53.500;10.020;2024-03-17T00:23:05;4.00;99.90
5743;DHT22;2896;53.500;10.020;2024-03-17T00:25:32;4.10;99.90
5743;DHT22;2896;53.500;10.020;2024-03-17T00:27:59;3.90;99.90
5743;DHT22;2896;53.500;10.020;2024-03-17T00:30:25;3.90;99.90
5743;DHT22;2896;53.500;10.020;2024-03-17T00:32:51;4.00;99.90
5743;DHT22;2896;53.500;10.020;2024-03-17T00:35:17;4.00;99.90
5743;DHT22;2896;53.500;10.020;2024-03-17T00:37:46;3.90;99.90
5743;DHT22;2896;53.500;10.020;2024-03-17T00:40:13;3.80;99.90
5743;DHT22;2896;53.500;10.020;2024-03-17T00:42:40;4.10;99.90
5743;DHT22;2896;53.500;10.020;2024-03-17T00:45:06;3.70;99.90
5743;DHT22;2896;53.500;10.020;2024-03-17T00:47:33;3.60;99.90
5743;DHT22;2896;53.500;10.020;2024-03-17T00:49:59;3.70;99.90
5743;DHT22;2896;53.500;10.020;2024-03-17T00:52:26;3.70;99.90
5743;DHT22;2896;53.500;10.020;2024-03-17T00:54:52;3.60;99.90
5743;DHT22;2896;53.500;10.020;2024-03-17T00:57:20;3.60;99.90
5743;DHT22;2896;53.500;10.020;2024-03-17T00:59:46;3.60;99.90
5743;DHT22;2896;53.500;10.020;2024-03-17T01:02:14;3.90;99.90
5743;DHT22;2896;53.500;10.020;2024-03-17T01:04:41;3.70;99.90
5743;DHT22;2896;53.500;10.020;2024-03-17T01:07:08;3.70;99.90
5743;DHT22;2896;53.500;10.020;2024-03-17T01:09:35;3.60;99.90
5743;DHT22;2896;53.500;10.020;2024-03-17T01:12:01;3.70;99.90
5743;DHT22;2896;53.500;10.020;2024-03-17T01:14:29;3.60;99.90
5743;DHT22;2896;53.500;10.020;2024-03-17T01:16:56;3.80;99.90
5743;DHT22;2896;53.500;10.020;2024-03-17T01:19:22;3.70;99.90
5743;DHT22;2896;53.500;10.020;2024-03-17T01:21:50;3.60;99.90
5743;DHT22;2896;53.500;10.020;2024-03-17T01:24:17;3.60;99.90
5743;DHT22;2896;53.500;10.020;2024-03-17T01:26:43;3.50;99.90
5743;DHT22;2896;53.500;10.020;2024-03-17T01:29:10;4.00;99.90
5743;DHT22;2896;53.500;10.020;2024-03-17T01:31:38;3.60;99.90
5743;DHT22;2896;53.500;10.020;2024-03-17T01:34:03;3.70;99.90
5743;DHT22;2896;53.500;10.020;2024-03-17T01:36:30;3.60;99.90
5743;DHT22;2896;53.500;10.020;2024-03-17T01:38:56;3.60;99.90
5743;DHT22;2896;53.500;10.020;2024-03-17T01:41:22;3.90;99.90
5743;DHT22;2896;53.500;10.020;2024-03-17T01:43:48;3.80;99.90
5743;DHT22;2896;53.500;10.020;2024-03-17T01:46:16;3.60;99.90
5743;DHT22;2896;53.500;10.020;2024-03-17T01:48:44;3.60;99.90
5743;DHT22;2896;53.500;10.020;2024-03-17T01:51:11;3.50;99.90
5743;DHT22;2896;53.500;10.020;2024-03-17T01:53:39;3.70;99.90
5743;DHT22;2896;53.500;10.020;2024-03-17T01:56:07;3.40;99.90
5743;DHT22;2896;53.500;10.020;2024-03-17T01:58:36;3.10;99.90
5743;DHT22;2896;53.500;10.020;2024-03-17T02:01:03;3.30;99.90
5743;DHT22;2896;53.500;10.020;2024-03-17T02:03:30;3.20;99.90
5743;DHT22;2896;53.500;10.020;2024-03-17T02:05:58;3.20;99.90
5743;DHT22;2896;53.500;10.020;2024-03-17T02:08:23;3.10;99.90
5743;DHT22;2896;53.500;10.020;2024-03-17T02:10:52;3.40;99.90
5743;DHT22;2896;53.500;10.020;2024-03-17T02:13:18;3.20;99.90
5743;DHT22;2896;53.500;10.020;2024-03-17T02:15:46;3.20;99.90
5743;DHT22;2896;53.500;10.020;2024-03-17T02:18:12;3.10;99.90
5743;DHT22;2896;53.500;10.020;2024-03-17T02:20:39;3.10;99.90
5743;DHT22;2896;53.500;10.020;2024-03-17T02:23:26;3.10;99.90
5743;DHT22;2896;53.500;10.020;2024-03-17T02:25:53;3.00;99.90
5743;DHT22;2896;53.500;10.020;2024-03-17T02:28:19;2.90;99.90
5743;DHT22;2896;53.500;10.020;2024-03-17T02:30:46;2.90;99.90
5743;DHT22;2896;53.500;10.020;2024-03-17T02:33:12;3.20;99.90
5743;DHT22;2896;53.500;10.020;2024-03-17T02:35:38;3.20;99.90
5743;DHT22;2896;53.500;10.020;2024-03-17T02:38:04;3.50;99.90
5743;DHT22;2896;53.500;10.020;2024-03-17T02:40:34;3.30;99.90
5743;DHT22;2896;53.500;10.020;2024-03-17T02:43:00;3.20;99.90
5743;DHT22;2896;53.500;10.020;2024-03-17T02:45:26;3.30;99.90
5743;DHT22;2896;53.500;10.020;2024-03-17T02:47:53;3.30;99.90
5743;DHT22;2896;53.500;10.020;2024-03-17T02:50:20;3.30;99.90
5743;DHT22;2896;53.500;10.020;2024-03-17T02:52:47;3.50;99.90
5743;DHT22;2896;53.500;10.020;2024-03-17T02:55:14;3.20;99.90
5743;DHT22;2896;53.500;10.020;2024-03-17T02:57:44;3.20;99.90
5743;DHT22;2896;53.500;10.020;2024-03-17T03:00:11;3.10;99.90
5743;DHT22;2896;53.500;10.020;2024-03-17T03:02:38;3.00;99.90
5743;DHT22;2896;53.500;10.020;2024-03-17T03:05:06;2.90;99.90
5743;DHT22;2896;53.500;10.020;2024-03-17T03:07:32;2.80;99.90
5743;DHT22;2896;53.500;10.020;2024-03-17T03:09:59;2.60;99.90
5743;DHT22;2896;53.500;10.020;2024-03-17T03:12:26;3.20;99.90
5743;DHT22;2896;53.500;10.020;2024-03-17T03:14:54;3.10;99.90
5743;DHT22;2896;53.500;10.020;2024-03-17T03:17:20;2.60;99.90
5743;DHT22;2896;53.500;10.020;2024-03-17T03:19:47;2.50;99.90
5743;DHT22;2896;53.500;10.020;2024-03-17T03:22:14;2.70;99.90
5743;DHT22;2896;53.500;10.020;2024-03-17T03:24:40;2.40;99.90
5743;DHT22;2896;53.500;10.020;2024-03-17T03:27:07;2.30;99.90
5743;DHT22;2896;53.500;10.020;2024-03-17T03:29:34;2.30;99.90
5743;DHT22;2896;53.500;10.020;2024-03-17T03:32:02;2.20;99.90
5743;DHT22;2896;53.500;10.020;2024-03-17T03:34:28;2.20;99.90
5743;DHT22;2896;53.500;10.020;2024-03-17T03:36:55;2.10;99.90
5743;DHT22;2896;53.500;10.020;2024-03-17T03:39:22;2.10;99.90
5743;DHT22;2896;53.500;10.020;2024-03-17T03:41:49;2.10;99.90
5743;DHT22;2896;53.500;10.020;2024-03-17T03:44:17;2.00;99.90
5743;DHT22;2896;53.500;10.020;2024-03-17T03:46:44;1.90;99.90
5743;DHT22;2896;53.500;10.020;2024-03-17T03:49:13;1.90;99.90
5743;DHT22;2896;53.500;10.020;2024-03-17T03:51:40;1.80;99.90
5743;DHT22;2896;53.500;10.020;2024-03-17T03:54:07;1.70;99.90
5743;DHT22;2896;53.500;10.020;2024-03-17T03:56:33;2.00;99.90
5743;DHT22;2896;53.500;10.020;2024-03-17T03:59:00;1.70;99.90
5743;DHT22;2896;53.500;10.020;2024-03-17T04:01:26;1.60;99.90
5743;DHT22;2896;53.500;10.020;2024-03-17T04:03:53;1.60;99.90
5743;DHT22;2896;53.500;10.020;2024-03-17T04:06:21;1.60;99.90
5743;DHT22;2896;53.500;10.020;2024-03-17T04:08:48;1.60;99.90
5743;DHT22;2896;53.500;10.020;2024-03-17T04:11:15;2.00;99.90
5743;DHT22;2896;53.500;10.020;2024-03-17T04:13:42;1.80;99.90
5743;DHT22;2896;53.500;10.020;2024-03-17T04:16:08;1.40;99.90
5743;DHT22;2896;53.500;10.020;2024-03-17T04:18:36;1.30;99.90
5743;DHT22;2896;53.500;10.020;2024-03-17T04:21:04;1.40;99.90
5743;DHT22;2896;53.500;10.020;2024-03-17T04:23:33;1.30;99.90
5743;DHT22;2896;53.500;10.020;2024-03-17T04:26:00;1.30;99.90
5743;DHT22;2896;53.500;10.020;2024-03-17T04:28:28;1.40;99.90
5743;DHT22;2896;53.500;10.020;2024-03-17T04:31:03;1.40;99.90
5743;DHT22;2896;53.500;10.020;2024-03-17T04:33:31;1.40;99.90
5743;DHT22;2896;53.500;10.020;2024-03-17T04:35:58;1.50;99.90
5743;DHT22;2896;53.500;10.020;2024-03-17T04:38:24;1.50;99.90
5743;DHT22;2896;53.500;10.020;2024-03-17T04:40:53;1.60;99.90
5743;DHT22;2896;53.500;10.020;2024-03-17T04:43:29;1.70;99.90
5743;DHT22;2896;53.500;10.020;2024-03-17T04:45:59;1.70;99.90
5743;DHT22;2896;53.500;10.020;2024-03-17T04:48:26;1.70;99.90
5743;DHT22;2896;53.500;10.020;2024-03-17T04:50:53;1.90;99.90
5743;DHT22;2896;53.500;10.020;2024-03-17T04:53:20;1.90;99.90
5743;DHT22;2896;53.500;10.020;2024-03-17T04:55:47;2.00;99.90
5743;DHT22;2896;53.500;10.020;2024-03-17T04:58:15;2.10;99.90
5743;DHT22;2896;53.500;10.020;2024-03-17T05:00:41;2.10;99.90
5743;DHT22;2896;53.500;10.020;2024-03-17T05:03:08;2.10;99.90
5743;DHT22;2896;53.500;10.020;2024-03-17T05:05:34;2.20;99.90
5743;DHT22;2896;53.500;10.020;2024-03-17T05:10:28;2.40;99.90
5743;DHT22;2896;53.500;10.020;2024-03-17T05:12:55;2.40;99.90
5743;DHT22;2896;53.500;10.020;2024-03-17T05:15:23;2.40;99.90
5743;DHT22;2896;53.500;10.020;2024-03-17T05:17:50;2.40;99.90
5743;DHT22;2896;53.500;10.020;2024-03-17T05:20:16;2.50;99.90
5743;DHT22;2896;53.500;10.020;2024-03-17T05:22:43;2.50;99.90
5743;DHT22;2896;53.500;10.020;2024-03-17T05:25:11;2.60;99.90
5743;DHT22;2896;53.500;10.020;2024-03-17T05:27:39;2.60;99.90
5743;DHT22;2896;53.500;10.020;2024-03-17T05:30:07;2.60;99.90
5743;DHT22;2896;53.500;10.020;2024-03-17T05:32:36;2.60;99.90
5743;DHT22;2896;53.500;10.020;2024-03-17T05:35:04;2.50;99.90
5743;DHT22;2896;53.500;10.020;2024-03-17T05:37:31;2.50;99.90
5743;DHT22;2896;53.500;10.020;2024-03-17T05:39:57;2.50;99.90
5743;DHT22;2896;53.500;10.020;2024-03-17T05:42:24;2.50;99.90
5743;DHT22;2896;53.500;10.020;2024-03-17T05:44:50;2.90;99.90
5743;DHT22;2896;53.500;10.020;2024-03-17T05:47:18;2.60;99.90
5743;DHT22;2896;53.500;10.020;2024-03-17T05:49:46;2.60;99.90
5743;DHT22;2896;53.500;10.020;2024-03-17T05:52:14;2.60;99.90
5743;DHT22;2896;53.500;10.020;2024-03-17T05:54:40;2.60;99.90
5743;DHT22;2896;53.500;10.020;2024-03-17T05:57:07;2.50;99.90
5743;DHT22;2896;53.500;10.020;2024-03-17T05:59:35;2.50;99.90
5743;DHT22;2896;53.500;10.020;2024-03-17T06:02:01;2.50;99.90
5743;DHT22;2896;53.500;10.020;2024-03-17T06:04:28;2.50;99.90
5743;DHT22;2896;53.500;10.020;2024-03-17T06:06:56;2.40;99.90
5743;DHT22;2896;53.500;10.020;2024-03-17T06:09:23;2.80;99.90
5743;DHT22;2896;53.500;10.020;2024-03-17T06:11:49;2.50;99.90
5743;DHT22;2896;53.500;10.020;2024-03-17T06:14:16;2.60;99.90
5743;DHT22;2896;53.500;10.020;2024-03-17T06:16:43;2.60;99.90
5743;DHT22;2896;53.500;10.020;2024-03-17T06:19:10;2.60;99.90
5743;DHT22;2896;53.500;10.020;2024-03-17T06:21:37;2.70;99.90
5743;DHT22;2896;53.500;10.020;2024-03-17T06:24:06;2.80;99.90
5743;DHT22;2896;53.500;10.020;2024-03-17T06:26:33;2.80;99.90
5743;DHT22;2896;53.500;10.020;2024-03-17T06:29:00;2.90;99.90
5743;DHT22;2896;53.500;10.020;2024-03-17T06:31:27;3.50;99.90
5743;DHT22;2896;53.500;10.020;2024-03-17T06:33:54;4.10;99.90
5743;DHT22;2896;53.500;10.020;2024-03-17T06:36:21;4.60;99.90
5743;DHT22;2896;53.500;10.020;2024-03-17T06:38:47;5.20;99.90
5743;DHT22;2896;53.500;10.020;2024-03-17T06:41:15;5.80;99.90
5743;DHT22;2896;53.500;10.020;2024-03-17T06:43:42;6.20;99.90
5743;DHT22;2896;53.500;10.020;2024-03-17T06:46:09;6.50;99.90
5743;DHT22;2896;53.500;10.020;2024-03-17T06:48:36;6.60;99.90
5743;DHT22;2896;53.500;10.020;2024-03-17T06:51:03;6.70;99.90
5743;DHT22;2896;53.500;10.020;2024-03-17T06:53:30;6.80;99.90
5743;DHT22;2896;53.500;10.020;2024-03-17T06:55:59;6.60;99.90
5743;DHT22;2896;53.500;10.020;2024-03-17T06:58:28;6.60;99.90
5743;DHT22;2896;53.500;10.020;2024-03-17T07:00:56;6.70;99.90
5743;DHT22;2896;53.500;10.020;2024-03-17T07:03:23;6.80;99.90
5743;DHT22;2896;53.500;10.020;2024-03-17T07:05:51;6.70;99.90
5743;DHT22;2896;53.500;10.020;2024-03-17T07:08:19;6.60;99.90
5743;DHT22;2896;53.500;10.020;2024-03-17T07:10:55;6.40;99.90
5743;DHT22;2896;53.500;10.020;2024-03-17T07:13:22;6.50;99.90
5743;DHT22;2896;53.500;10.020;2024-03-17T07:15:50;6.40;99.90
5743;DHT22;2896;53.500;10.020;2024-03-17T07:18:17;6.60;99.90
5743;DHT22;2896;53.500;10.020;2024-03-17T07:20:43;6.40;99.90
5743;DHT22;2896;53.500;10.020;2024-03-17T07:23:13;6.40;99.90
5743;DHT22;2896;53.500;10.020;2024-03-17T07:25:39;6.60;99.90
5743;DHT22;2896;53.500;10.020;2024-03-17T07:28:06;6.80;99.90
5743;DHT22;2896;53.500;10.020;2024-03-17T07:30:33;7.00;99.90
5743;DHT22;2896;53.500;10.020;2024-03-17T07:33:01;7.20;99.90
5743;DHT22;2896;53.500;10.020;2024-03-17T07:35:27;7.40;99.90
5743;DHT22;2896;53.500;10.020;2024-03-17T07:37:54;7.40;99.90
5743;DHT22;2896;53.500;10.020;2024-03-17T07:40:21;7.70;99.90
5743;DHT22;2896;53.500;10.020;2024-03-17T07:42:47;7.70;99.90
5743;DHT22;2896;53.500;10.020;2024-03-17T07:45:14;7.70;99.90
5743;DHT22;2896;53.500;10.020;2024-03-17T07:47:42;8.00;99.90
5743;DHT22;2896;53.500;10.020;2024-03-17T07:50:10;7.90;1.00
5743;DHT22;2896;53.500;10.020;2024-03-17T07:52:38;8.10;99.90
5743;DHT22;2896;53.500;10.020;2024-03-17T07:55:05;8.40;99.90
5743;DHT22;2896;53.500;10.020;2024-03-17T07:57:34;8.60;99.90
5743;DHT22;2896;53.500;10.020;2024-03-17T08:00:01;8.90;1.00
5743;DHT22;2896;53.500;10.020;2024-03-17T08:02:28;8.50;99.90
5743;DHT22;2896;53.500;10.020;2024-03-17T08:04:55;8.60;1.00
5743;DHT22;2896;53.500;10.020;2024-03-17T08:07:23;8.50;1.00
5743;DHT22;2896;53.500;10.020;2024-03-17T08:09:50;8.60;1.00
5743;DHT22;2896;53.500;10.020;2024-03-17T08:12:16;8.50;22.10
5743;DHT22;2896;53.500;10.020;2024-03-17T08:14:42;8.60;99.90
5743;DHT22;2896;53.500;10.020;2024-03-17T08:17:09;8.40;99.90
5743;DHT22;2896;53.500;10.020;2024-03-17T08:19:35;8.70;99.90
5743;DHT22;2896;53.500;10.020;2024-03-17T08:22:04;8.90;1.00
5743;DHT22;2896;53.500;10.020;2024-03-17T08:24:32;8.90;1.00
5743;DHT22;2896;53.500;10.020;2024-03-17T08:26:59;8.80;99.90
5743;DHT22;2896;53.500;10.020;2024-03-17T08:29:25;9.00;1.00
5743;DHT22;2896;53.500;10.020;2024-03-17T08:31:52;9.10;1.00
5743;DHT22;2896;53.500;10.020;2024-03-17T08:34:18;9.40;1.00
5743;DHT22;2896;53.500;10.020;2024-03-17T08:36:45;9.50;99.90
5743;DHT22;2896;53.500;10.020;2024-03-17T08:39:12;9.20;99.90
5743;DHT22;2896;53.500;10.020;2024-03-17T08:41:40;9.60;99.90
5743;DHT22;2896;53.500;10.020;2024-03-17T08:44:09;9.70;23.30
5743;DHT22;2896;53.500;10.020;2024-03-17T08:46:36;9.50;1.00
5743;DHT22;2896;53.500;10.020;2024-03-17T08:49:03;9.10;1.00
5743;DHT22;2896;53.500;10.020;2024-03-17T08:51:30;12.60;1.00
5743;DHT22;2896;53.500;10.020;2024-03-17T08:53:57;9.50;1.00
5743;DHT22;2896;53.500;10.020;2024-03-17T08:56:24;9.40;1.00
5743;DHT22;2896;53.500;10.020;2024-03-17T08:58:52;9.50;1.00
5743;DHT22;2896;53.500;10.020;2024-03-17T09:01:18;9.60;1.00
5743;DHT22;2896;53.500;10.020;2024-03-17T09:03:45;9.50;1.00
5743;DHT22;2896;53.500;10.020;2024-03-17T09:06:15;9.60;99.90
5743;DHT22;2896;53.500;10.020;2024-03-17T09:08:42;9.60;99.90
5743;DHT22;2896;53.500;10.020;2024-03-17T09:11:12;9.80;99.90
5743;DHT22;2896;53.500;10.020;2024-03-17T09:13:39;9.30;99.90
5743;DHT22;2896;53.500;10.020;2024-03-17T09:16:08;9.00;99.90
5743;DHT22;2896;53.500;10.020;2024-03-17T09:18:36;9.30;99.90
5743;DHT22;2896;53.500;10.020;2024-03-17T09:21:07;9.30;99.90
5743;DHT22;2896;53.500;10.020;2024-03-17T09:23:34;9.40;99.90
5743;DHT22;2896;53.500;10.020;2024-03-17T09:26:03;9.60;99.90
5743;DHT22;2896;53.500;10.020;2024-03-17T09:28:31;9.80;99.90
5743;DHT22;2896;53.500;10.020;2024-03-17T09:30:59;10.00;99.90
5743;DHT22;2896;53.500;10.020;2024-03-17T09:33:28;10.00;99.90
5743;DHT22;2896;53.500;10.020;2024-03-17T09:35:56;9.80;99.90
5743;DHT22;2896;53.500;10.020;2024-03-17T09:38:23;9.80;99.90
5743;DHT22;2896;53.500;10.020;2024-03-17T09:40:50;9.90;99.90
5743;DHT22;2896;53.500;10.020;2024-03-17T09:43:19;12.00;99.90
5743;DHT22;2896;53.500;10.020;2024-03-17T09:45:45;9.90;99.90
5743;DHT22;2896;53.500;10.020;2024-03-17T09:48:15;9.80;99.90
5743;DHT22;2896;53.500;10.020;2024-03-17T09:50:49;9.80;97.00
5743;DHT22;2896;53.500;10.020;2024-03-17T09:53:17;9.70;88.70
5743;DHT22;2896;53.500;10.020;2024-03-17T09:55:47;10.10;91.70
5743;DHT22;2896;53.500;10.020;2024-03-17T09:58:15;10.40;83.30
5743;DHT22;2896;53.500;10.020;2024-03-17T10:00:43;11.90;84.30
5743;DHT22;2896;53.500;10.020;2024-03-17T10:03:10;11.00;79.60
5743;DHT22;2896;53.500;10.020;2024-03-17T10:05:37;10.50;43.40
5743;DHT22;2896;53.500;10.020;2024-03-17T10:08:05;10.80;44.10
5743;DHT22;2896;53.500;10.020;2024-03-17T10:10:34;10.90;30.10
5743;DHT22;2896;53.500;10.020;2024-03-17T10:13:01;10.90;19.10
5743;DHT22;2896;53.500;10.020;2024-03-17T10:15:27;10.90;5.20
5743;DHT22;2896;53.500;10.020;2024-03-17T10:17:55;10.70;1.00
5743;DHT22;2896;53.500;10.020;2024-03-17T10:20:24;10.80;1.00
5743;DHT22;2896;53.500;10.020;2024-03-17T10:23:06;10.70;1.00
5743;DHT22;2896;53.500;10.020;2024-03-17T10:25:34;11.20;1.00
5743;DHT22;2896;53.500;10.020;2024-03-17T10:28:10;11.70;1.00
5743;DHT22;2896;53.500;10.020;2024-03-17T10:30:37;12.20;1.00
5743;DHT22;2896;53.500;10.020;2024-03-17T10:33:06;12.50;1.00
5743;DHT22;2896;53.500;10.020;2024-03-17T10:35:34;12.60;1.00
5743;DHT22;2896;53.500;10.020;2024-03-17T10:38:06;12.60;1.00
5743;DHT22;2896;53.500;10.020;2024-03-17T10:40:34;12.70;1.00
5743;DHT22;2896;53.500;10.020;2024-03-17T10:43:02;12.60;1.00
5743;DHT22;2896;53.500;10.020;2024-03-17T10:45:29;13.00;1.00
5743;DHT22;2896;53.500;10.020;2024-03-17T10:47:59;13.20;1.00
5743;DHT22;2896;53.500;10.020;2024-03-17T10:50:30;14.60;1.00
5743;DHT22;2896;53.500;10.020;2024-03-17T10:53:01;13.10;1.00
5743;DHT22;2896;53.500;10.020;2024-03-17T10:55:34;13.20;1.00
5743;DHT22;2896;53.500;10.020;2024-03-17T10:58:04;12.90;1.00
5743;DHT22;2896;53.500;10.020;2024-03-17T11:00:34;13.10;1.00
5743;DHT22;2896;53.500;10.020;2024-03-17T11:03:03;13.10;1.00
5743;DHT22;2896;53.500;10.020;2024-03-17T11:05:32;13.10;1.00
5743;DHT22;2896;53.500;10.020;2024-03-17T11:07:59;13.40;1.00
5743;DHT22;2896;53.500;10.020;2024-03-17T11:10:28;13.60;1.00
5743;DHT22;2896;53.500;10.020;2024-03-17T11:12:57;12.90;1.00
5743;DHT22;2896;53.500;10.020;2024-03-17T11:15:38;12.40;1.00
5743;DHT22;2896;53.500;10.020;2024-03-17T11:18:34;12.90;1.00
5743;DHT22;2896;53.500;10.020;2024-03-17T11:21:03;13.10;1.00
5743;DHT22;2896;53.500;10.020;2024-03-17T11:23:34;13.40;1.00
5743;DHT22;2896;53.500;10.020;2024-03-17T11:26:03;14.00;1.00
5743;DHT22;2896;53.500;10.020;2024-03-17T11:28:46;13.60;1.00
5743;DHT22;2896;53.500;10.020;2024-03-17T11:31:36;13.90;1.00
5743;DHT22;2896;53.500;10.020;2024-03-17T11:34:07;14.00;1.00
5743;DHT22;2896;53.500;10.020;2024-03-17T11:36:52;13.40;1.00
5743;DHT22;2896;53.500;10.020;2024-03-17T11:39:20;13.60;1.00
5743;DHT22;2896;53.500;10.020;2024-03-17T11:41:47;14.20;1.00
5743;DHT22;2896;53.500;10.020;2024-03-17T11:44:24;14.40;1.00
5743;DHT22;2896;53.500;10.020;2024-03-17T11:46:52;14.20;1.00
5743;DHT22;2896;53.500;10.020;2024-03-17T11:49:21;14.40;1.00
5743;DHT22;2896;53.500;10.020;2024-03-17T11:51:48;14.50;1.00
5743;DHT22;2896;53.500;10.020;2024-03-17T11:54:16;14.50;1.00
5743;DHT22;2896;53.500;10.020;2024-03-17T11:56:44;13.40;1.00
5743;DHT22;2896;53.500;10.020;2024-03-17T11:59:11;13.10;1.00
5743;DHT22;2896;53.500;10.020;2024-03-17T12:01:39;13.30;1.00
5743;DHT22;2896;53.500;10.020;2024-03-17T12:04:07;13.30;1.00
5743;DHT22;2896;53.500;10.020;2024-03-17T12:06:33;13.50;1.00
5743;DHT22;2896;53.500;10.020;2024-03-17T12:09:18;13.50;1.00
5743;DHT22;2896;53.500;10.020;2024-03-17T12:11:47;13.90;1.00
5743;DHT22;2896;53.500;10.020;2024-03-17T12:14:17;14.40;1.00
5743;DHT22;2896;53.500;10.020;2024-03-17T12:16:50;14.40;1.00
5743;DHT22;2896;53.500;10.020;2024-03-17T12:19:17;14.70;1.00
5743;DHT22;2896;53.500;10.020;2024-03-17T12:21:45;15.20;1.00
5743;DHT22;2896;53.500;10.020;2024-03-17T12:24:14;15.50;1.00
5743;DHT22;2896;53.500;10.020;2024-03-17T12:26:42;15.50;1.00
5743;DHT22;2896;53.500;10.020;2024-03-17T12:29:25;15.60;1.00
5743;DHT22;2896;53.500;10.020;2024-03-17T12:31:57;15.50;1.00
5743;DHT22;2896;53.500;10.020;2024-03-17T12:34:25;15.40;1.00
5743;DHT22;2896;53.500;10.020;2024-03-17T12:36:53;15.60;1.00
5743;DHT22;2896;53.500;10.020;2024-03-17T12:39:21;15.70;1.00
5743;DHT22;2896;53.500;10.020;2024-03-17T12:42:04;15.90;1.00
5743;DHT22;2896;53.500;10.020;2024-03-17T12:44:31;16.20;1.00
5743;DHT22;2896;53.500;10.020;2024-03-17T12:47:00;16.20;1.00
5743;DHT22;2896;53.500;10.020;2024-03-17T12:49:28;16.10;1.00
5743;DHT22;2896;53.500;10.020;2024-03-17T12:51:54;16.30;1.00
5743;DHT22;2896;53.500;10.020;2024-03-17T12:54:22;15.30;1.00
5743;DHT22;2896;53.500;10.020;2024-03-17T12:56:49;15.60;1.00
5743;DHT22;2896;53.500;10.020;2024-03-17T12:59:40;15.80;1.00
5743;DHT22;2896;53.500;10.020;2024-03-17T13:02:26;15.70;1.00
5743;DHT22;2896;53.500;10.020;2024-03-17T13:05:07;16.00;1.00
5743;DHT22;2896;53.500;10.020;2024-03-17T13:07:35;16.20;1.00
5743;DHT22;2896;53.500;10.020;2024-03-17T13:10:01;15.70;1.00
5743;DHT22;2896;53.500;10.020;2024-03-17T13:12:29;16.00;1.00
5743;DHT22;2896;53.500;10.020;2024-03-17T13:14:56;14.40;1.00
5743;DHT22;2896;53.500;10.020;2024-03-17T13:17:22;14.80;1.00
5743;DHT22;2896;53.500;10.020;2024-03-17T13:19:50;15.50;1.00
5743;DHT22;2896;53.500;10.020;2024-03-17T13:22:17;16.60;1.00
5743;DHT22;2896;53.500;10.020;2024-03-17T13:24:43;16.00;1.00
5743;DHT22;2896;53.500;10.020;2024-03-17T13:27:10;16.20;1.00
5743;DHT22;2896;53.500;10.020;2024-03-17T13:29:37;16.30;1.00
5743;DHT22;2896;53.500;10.020;2024-03-17T13:32:04;16.40;1.00
5743;DHT22;2896;53.500;10.020;2024-03-17T13:34:31;16.30;1.00
5743;DHT22;2896;53.500;10.020;2024-03-17T13:36:59;16.50;1.00
5743;DHT22;2896;53.500;10.020;2024-03-17T13:39:29;16.40;1.00
5743;DHT22;2896;53.500;10.020;2024-03-17T13:41:57;16.90;1.00
5743;DHT22;2896;53.500;10.020;2024-03-17T13:44:28;16.70;1.00
5743;DHT22;2896;53.500;10.020;2024-03-17T13:46:54;16.70;1.00
5743;DHT22;2896;53.500;10.020;2024-03-17T13:49:21;16.70;1.00
5743;DHT22;2896;53.500;10.020;2024-03-17T13:51:48;15.40;1.00
5743;DHT22;2896;53.500;10.020;2024-03-17T13:54:16;15.40;1.00
5743;DHT22;2896;53.500;10.020;2024-03-17T13:56:46;15.90;1.00
5743;DHT22;2896;53.500;10.020;2024-03-17T13:59:12;15.80;1.00
5743;DHT22;2896;53.500;10.020;2024-03-17T14:01:40;15.70;1.00
5743;DHT22;2896;53.500;10.020;2024-03-17T14:04:09;15.60;1.00
5743;DHT22;2896;53.500;10.020;2024-03-17T14:06:38;15.90;1.00
5743;DHT22;2896;53.500;10.020;2024-03-17T14:09:05;15.50;1.00
5743;DHT22;2896;53.500;10.020;2024-03-17T14:11:36;16.00;1.00
5743;DHT22;2896;53.500;10.020;2024-03-17T14:14:02;16.40;1.00
5743;DHT22;2896;53.500;10.020;2024-03-17T14:16:30;16.20;1.00
5743;DHT22;2896;53.500;10.020;2024-03-17T14:18:58;16.00;1.00
5743;DHT22;2896;53.500;10.020;2024-03-17T14:21:25;15.80;1.00
5743;DHT22;2896;53.500;10.020;2024-03-17T14:23:51;15.30;1.00
5743;DHT22;2896;53.500;10.020;2024-03-17T14:26:18;17.70;1.00
5743;DHT22;2896;53.500;10.020;2024-03-17T14:28:46;15.40;1.00
5743;DHT22;2896;53.500;10.020;2024-03-17T14:31:14;15.70;1.00
5743;DHT22;2896;53.500;10.020;2024-03-17T14:33:40;15.60;1.00
5743;DHT22;2896;53.500;10.020;2024-03-17T14:36:07;15.30;1.00
5743;DHT22;2896;53.500;10.020;2024-03-17T14:38:34;15.40;1.00
5743;DHT22;2896;53.500;10.020;2024-03-17T14:41:00;15.40;1.00
5743;DHT22;2896;53.500;10.020;2024-03-17T14:43:30;15.30;1.00
5743;DHT22;2896;53.500;10.020;2024-03-17T14:45:58;15.20;1.00
5743;DHT22;2896;53.500;10.020;2024-03-17T14:48:24;15.40;1.00
5743;DHT22;2896;53.500;10.020;2024-03-17T14:50:51;15.40;1.00
5743;DHT22;2896;53.500;10.020;2024-03-17T14:53:18;15.20;1.00
5743;DHT22;2896;53.500;10.020;2024-03-17T14:55:45;14.60;1.00
5743;DHT22;2896;53.500;10.020;2024-03-17T14:58:12;14.20;1.00
5743;DHT22;2896;53.500;10.020;2024-03-17T15:00:40;14.90;1.00
5743;DHT22;2896;53.500;10.020;2024-03-17T15:03:08;15.40;1.00
5743;DHT22;2896;53.500;10.020;2024-03-17T15:05:35;15.50;1.00
5743;DHT22;2896;53.500;10.020;2024-03-17T15:08:02;15.30;1.00
5743;DHT22;2896;53.500;10.020;2024-03-17T15:10:29;15.40;1.00
5743;DHT22;2896;53.500;10.020;2024-03-17T15:12:55;15.80;1.00
5743;DHT22;2896;53.500;10.020;2024-03-17T15:15:22;15.50;1.00
5743;DHT22;2896;53.500;10.020;2024-03-17T15:17:49;15.60;1.00
5743;DHT22;2896;53.500;10.020;2024-03-17T15:20:17;15.70;1.00
5743;DHT22;2896;53.500;10.020;2024-03-17T15:22:48;16.00;1.00
5743;DHT22;2896;53.500;10.020;2024-03-17T15:25:15;16.00;1.00
5743;DHT22;2896;53.500;10.020;2024-03-17T15:27:42;15.60;1.00
5743;DHT22;2896;53.500;10.020;2024-03-17T15:30:12;15.80;1.00
5743;DHT22;2896;53.500;10.020;2024-03-17T15:32:40;15.80;1.00
5743;DHT22;2896;53.500;10.020;2024-03-17T15:35:08;15.50;1.00
5743;DHT22;2896;53.500;10.020;2024-03-17T15:37:36;15.80;1.00
5743;DHT22;2896;53.500;10.020;2024-03-17T15:40:03;15.90;1.00
5743;DHT22;2896;53.500;10.020;2024-03-17T15:42:30;15.90;1.00
5743;DHT22;2896;53.500;10.020;2024-03-17T15:44:58;15.70;1.00
5743;DHT22;2896;53.500;10.020;2024-03-17T15:47:25;15.80;1.00
5743;DHT22;2896;53.500;10.020;2024-03-17T15:49:52;15.70;1.00
5743;DHT22;2896;53.500;10.020;2024-03-17T15:52:18;15.20;1.00
5743;DHT22;2896;53.500;10.020;2024-03-17T15:54:47;14.60;1.00
5743;DHT22;2896;53.500;10.020;2024-03-17T15:57:13;14.60;1.00
5743;DHT22;2896;53.500;10.020;2024-03-17T15:59:40;14.60;1.00
5743;DHT22;2896;53.500;10.020;2024-03-17T16:02:07;14.60;1.00
5743;DHT22;2896;53.500;10.020;2024-03-17T16:04:36;14.50;1.00
5743;DHT22;2896;53.500;10.020;2024-03-17T16:07:03;14.00;1.00
5743;DHT22;2896;53.500;10.020;2024-03-17T16:09:31;13.90;1.00